Billings, MT (59101)

5:31 PM MST on December 04, 2016 (GMT -0700)
Yellowstone RV Campground | | Change Station
Active Advisory: Winter Weather Advisory

Elev 3120 ft 45.76 °N, 108.48 °W | Updated 5 seconds ago

Mostly Cloudy
Mostly Cloudy
42.4 °F
Feels Like 42 °F
N
0.0
Wind Variable Wind from WNW
Gusts 0.0 mph

Today
High -- | Low -- °F
--% Chance of Precip.
Yesterday
High -- | Low -- °F
Precip. -- in
Pressure 29.56 in
Visibility 10.0 miles
Clouds Few 7000 ft
Mostly Cloudy 14000 ft
Windchill 42 °F
Dew Point 18 °F
Humidity 37%
Rainfall 0.00 in
Snow Depth Not available.
7:38 AM 4:30 PM
Waxing Crescent, 26% visible
METAR KBIL 042353Z 23011KT 10SM FEW070 BKN140 05/M08 A2952 RMK AO2 SLP010 VIRGA ALQDS SHRASN DSNT ALQDS T00501078 10061 20022 58017
Pressure 29.56 in
Visibility 10.0 miles
Clouds Few 7000 ft
Mostly Cloudy 14000 ft
Windchill 42 °F
Dew Point 18 °F
Humidity 37%
Rainfall 0.00 in
Snow Depth Not available.
7:38 AM 4:30 PM
Waxing Crescent, 26% visible
METAR KBIL 042353Z 23011KT 10SM FEW070 BKN140 05/M08 A2952 RMK AO2 SLP010 VIRGA ALQDS SHRASN DSNT ALQDS T00501078 10061 20022 58017

10-Day Weather Forecast

Almanac

Astronomy

Dec. 04, 2016 Rise Set
Actual Time
Civil Twilight
Nautical Twilight
Astronomical Twilight
Moon
Length of Visible Light
Length of Day
Tomorrow will be .
, % of the Moon is Illuminated

Today's Extremes

State Highs State Lows

Community

WunderPhotos

Upload Photos

1,955,725 photos uploaded!

WunderBlog® & News

Nearby

Air Quality

  Air Quality AQ Index Pollutant
Not available.

Snow Depth

Station Depth Elevation

Earthquake Activity

City Distance Mag. Time & Date
Minimum magnitude displayed is 2.5.

Coastal Water Temperatures

Place Temperature

Stations

Nearby Weather Stations

Station Location Temp. Windchill Dew Point Humidity Wind Precip. Elev Updated Type
                   

Watches & Warnings

Winter Weather Advisory
Issued: 3:28 PM MST Dec. 4, 2016 – National Weather Service

... Winter Weather Advisory remains in effect until 6 PM MST
Monday...

* impacts... rain transitioning to snow and rapidly falling
temperatures... will cause slick roads and poor travel conditions
tonight. Snow showers with local accumulation will continue
Monday.

* Timing... through Monday.

* Snow accumulation... 1 to 3 inches. Narrow bands of snow
developing on Monday may produce locally higher amounts.

* Slick roads... temps falling into the 20s will cause icy roads.

Precautionary/preparedness actions...

A Winter Weather Advisory can be issued for a variety of winter
weather conditions such as light snow... blowing snow... sleet...
freezing rain... and extreme wind chills.